Main page
METAR-TAF:

METAR-TAF

Airports :

Cherif Al Idrissi Airport

Al Hoceima, Morocco

latitude: 35-11N, longitude: 003-51W, elevation: 27 m

Current weather observation

The report was made 1 hour and 1 minutes ago, at 18:00 UTC
Wind 7 kt from the East/Northeast
Temperature 13°C
Humidity 67%
Pressure 1029 hPa
Visibility 10 km or more
Few clouds at a height of 2200 ft

METAR: GMTA 031800Z 07007KT 9999 FEW022 13/07 Q1029 NOSIG

Time: 20:01 (19:01 UTC)

Forecast

The report was made 2 hours and 1 minutes ago, at 17:00 UTC
Forecast valid from 03 at 18 UTC to 04 at 24 UTC
Wind 7 kt from the East/Northeast
Visibility 10 km or more
Few clouds at a height of 2200 ft
Becoming
from 04 at 02 UTC to 04 at 05 UTC
Overcast at a height of 1000 ft
Becoming
from 04 at 08 UTC to 04 at 10 UTC
Few clouds at a height of 2000 ft

TAF: GMTA 031700Z 0318/0424 06007KT 9999 FEW022 BECMG 0402/0405 OVC010 BECMG 0408/0410 FEW020

Weather observations and forecasts of more than 4000 airports (METAR and TAF reports).

The available stations are represented by yellow and red dots on the map.

Hover mouse over dot to see the name of the station.

Then click to see weather observations and forecasts.

To change the map : click on the green buttons with a black cross to zoom in, on the green button with a dash to zoom out, or on the green arrows for adjacent maps.


METAR-TAF: